createdAt,value
2017-07-08T00:02:09.346Z,59.23
2017-07-08T00:04:36.906Z,62.30
2017-07-08T00:07:04.466Z,61.23
2017-07-08T00:09:31.985Z,64.77
2017-07-08T00:12:00.381Z,64.80
2017-07-08T00:14:27.970Z,59.90
2017-07-08T00:16:55.490Z,58.20
2017-07-08T00:19:23.083Z,62.47
2017-07-08T00:21:50.637Z,62.60
2017-07-08T00:24:18.178Z,60.30
2017-07-08T00:26:45.763Z,49.83
2017-07-08T00:29:13.314Z,44.90
2017-07-08T00:31:40.874Z,49.10
2017-07-08T00:34:08.398Z,53.93
2017-07-08T00:36:36.011Z,53.07
2017-07-08T00:39:03.541Z,54.70
2017-07-08T00:41:31.109Z,50.27
2017-07-08T00:43:58.665Z,34.97
2017-07-08T00:46:26.230Z,35.10
2017-07-08T00:48:53.798Z,32.00
2017-07-08T00:51:21.316Z,30.33
2017-07-08T00:53:48.897Z,28.43
2017-07-08T00:56:16.462Z,28.03
2017-07-08T00:58:43.981Z,27.70
2017-07-08T01:01:12.398Z,25.57
2017-07-08T01:03:39.917Z,26.33
2017-07-08T01:06:08.236Z,27.63
2017-07-08T01:08:35.765Z,26.93
2017-07-08T01:11:03.349Z,34.07
2017-07-08T01:13:30.925Z,34.13
2017-07-08T01:15:58.469Z,31.43
2017-07-08T01:18:26.026Z,31.30
2017-07-08T01:20:53.548Z,31.93
2017-07-08T01:23:21.860Z,27.87
2017-07-08T01:25:49.407Z,30.50
2017-07-08T01:28:16.975Z,29.33
2017-07-08T01:30:44.506Z,31.60
2017-07-08T01:33:12.034Z,29.57
2017-07-08T01:35:39.559Z,29.30
2017-07-08T01:38:07.109Z,27.63
2017-07-08T01:40:34.668Z,36.10
2017-07-08T01:43:02.225Z,28.97
2017-07-08T01:45:29.750Z,29.27
2017-07-08T01:47:58.063Z,27.00
2017-07-08T01:50:25.721Z,28.00
2017-07-08T01:52:53.278Z,28.93
2017-07-08T01:55:20.841Z,28.97
2017-07-08T01:57:48.398Z,26.67
2017-07-08T02:00:15.961Z,27.50
2017-07-08T02:02:43.626Z,25.80
2017-07-08T02:05:11.185Z,27.10
2017-07-08T02:07:38.736Z,28.43
2017-07-08T02:10:06.301Z,27.27
2017-07-08T02:12:33.822Z,29.20
2017-07-08T02:15:02.232Z,30.13
2017-07-08T02:17:29.806Z,30.50
2017-07-08T02:19:57.352Z,28.80
2017-07-08T02:22:24.872Z,28.60
2017-07-08T02:24:53.186Z,31.37
2017-07-08T02:27:20.853Z,29.30
2017-07-08T02:29:48.410Z,29.53
2017-07-08T02:32:15.952Z,29.33
2017-07-08T02:34:43.532Z,31.47
2017-07-08T02:37:11.083Z,27.60
2017-07-08T02:39:38.645Z,30.40
2017-07-08T02:42:06.169Z,28.47
2017-07-08T02:44:34.481Z,29.47
2017-07-08T02:47:02.037Z,30.50
2017-07-08T02:49:29.598Z,29.20
2017-07-08T02:51:57.258Z,33.40
2017-07-08T02:54:24.816Z,28.27
2017-07-08T02:56:52.379Z,31.67
2017-07-08T02:59:19.934Z,33.17
2017-07-08T03:01:47.493Z,31.60
2017-07-08T03:04:15.033Z,38.53
2017-07-08T03:06:42.611Z,34.33
2017-07-08T03:09:10.185Z,31.33
2017-07-08T03:11:37.724Z,34.13
2017-07-08T03:14:05.285Z,34.60
2017-07-08T03:16:32.946Z,33.70
2017-07-08T03:19:00.509Z,32.67
2017-07-08T03:21:28.029Z,36.73
2017-07-08T03:23:56.320Z,36.97
2017-07-08T03:26:23.901Z,37.53
2017-07-08T03:28:51.562Z,34.60
2017-07-08T03:31:19.087Z,33.47
2017-07-08T03:33:47.396Z,35.03
2017-07-08T03:36:14.955Z,34.00
2017-07-08T03:38:42.519Z,34.83
2017-07-08T03:41:10.063Z,35.53
2017-07-08T03:43:37.589Z,30.50
2017-07-08T03:46:05.902Z,29.57
2017-07-08T03:48:33.463Z,32.33
2017-07-08T03:51:01.022Z,31.80
2017-07-08T03:53:28.574Z,30.17
2017-07-08T03:55:56.141Z,29.13
2017-07-08T03:58:23.697Z,32.43
2017-07-08T04:00:51.258Z,26.50
2017-07-08T04:03:18.822Z,28.03
2017-07-08T04:05:46.482Z,28.00
2017-07-08T04:08:14.034Z,28.03
2017-07-08T04:10:41.567Z,28.73
2017-07-08T04:13:09.094Z,29.47
2017-07-08T04:15:36.613Z,29.80
2017-07-08T04:18:04.159Z,27.27
2017-07-08T04:20:31.729Z,26.63
2017-07-08T04:22:59.293Z,27.20
2017-07-08T04:25:26.816Z,25.27
2017-07-08T04:27:54.407Z,26.37
2017-07-08T04:30:22.065Z,27.00
2017-07-08T04:32:49.623Z,25.57
2017-07-08T04:35:17.157Z,27.73
2017-07-08T04:37:44.741Z,26.10
2017-07-08T04:40:12.271Z,26.77
2017-07-08T04:42:39.867Z,27.70
2017-07-08T04:45:07.430Z,25.80
2017-07-08T04:47:34.982Z,28.87
2017-07-08T04:50:02.541Z,27.17
2017-07-08T04:52:30.094Z,27.87
2017-07-08T04:54:57.697Z,27.50
2017-07-08T04:57:25.325Z,28.90
2017-07-08T04:59:52.845Z,27.80
2017-07-08T05:02:20.437Z,26.37
2017-07-08T05:04:47.989Z,27.43
2017-07-08T05:07:15.548Z,25.73
2017-07-08T05:09:43.068Z,27.17
2017-07-08T05:12:11.389Z,25.83
2017-07-08T05:14:38.909Z,26.13
2017-07-08T05:17:07.222Z,27.60
2017-07-08T05:19:34.782Z,25.73
2017-07-08T05:22:02.340Z,26.70
2017-07-08T05:24:29.904Z,26.33
2017-07-08T05:26:57.452Z,27.67
2017-07-08T05:29:24.973Z,27.40
2017-07-08T05:31:53.394Z,26.57
2017-07-08T05:34:20.961Z,26.23
2017-07-08T05:36:48.509Z,24.37
2017-07-08T05:39:16.049Z,24.57
2017-07-08T05:41:43.630Z,26.97
2017-07-08T05:44:11.290Z,24.47
2017-07-08T05:46:38.844Z,24.70
2017-07-08T05:49:06.406Z,23.20
2017-07-08T05:51:33.961Z,22.83
2017-07-08T05:54:01.524Z,24.77
2017-07-08T05:56:29.082Z,25.17
2017-07-08T05:58:56.605Z,24.73
2017-07-08T06:01:24.922Z,25.40
2017-07-08T06:03:52.477Z,25.67
2017-07-08T06:06:19.998Z,26.93
2017-07-08T06:08:48.414Z,25.33
2017-07-08T06:11:15.974Z,28.13
2017-07-08T06:13:43.534Z,26.50
2017-07-08T06:16:11.066Z,24.60
2017-07-08T06:18:38.653Z,26.50
2017-07-08T06:21:06.313Z,26.70
2017-07-08T06:23:33.881Z,25.67
2017-07-08T06:26:01.429Z,25.20
2017-07-08T06:28:28.988Z,24.33
2017-07-08T06:30:56.550Z,23.37
2017-07-08T06:33:24.115Z,24.00
2017-07-08T06:35:51.661Z,21.47
2017-07-08T06:38:19.218Z,23.07
2017-07-08T06:40:46.869Z,23.33
2017-07-08T06:43:14.447Z,20.87
2017-07-08T06:45:41.981Z,21.23
2017-07-08T06:48:09.511Z,20.00
2017-07-08T06:50:37.935Z,23.13
2017-07-08T06:53:05.494Z,21.53
2017-07-08T06:55:33.061Z,19.67
2017-07-08T06:58:00.617Z,20.27
2017-07-08T07:00:28.178Z,20.70
2017-07-08T07:02:55.833Z,19.00
2017-07-08T07:05:23.402Z,16.50
2017-07-08T07:07:50.922Z,16.53
2017-07-08T07:10:18.510Z,15.23
2017-07-08T07:12:46.070Z,15.30
2017-07-08T07:15:13.729Z,14.43
2017-07-08T07:17:41.248Z,14.33
2017-07-08T07:20:09.563Z,15.57
2017-07-08T07:22:37.089Z,16.33
2017-07-08T07:25:05.397Z,14.30
2017-07-08T07:27:33.058Z,16.20
2017-07-08T07:30:00.620Z,15.70
2017-07-08T07:32:28.180Z,14.83
2017-07-08T07:34:55.737Z,14.43
2017-07-08T07:37:23.252Z,14.00
2017-07-08T07:39:51.673Z,13.67
2017-07-08T07:42:19.194Z,13.20
2017-07-08T07:44:47.522Z,12.97
2017-07-08T07:47:15.049Z,12.70
2017-07-08T07:49:42.641Z,14.17
2017-07-08T07:52:10.166Z,12.23
2017-07-08T07:54:37.686Z,13.17
2017-07-08T07:57:05.213Z,13.60
2017-07-08T07:59:32.733Z,12.10
2017-07-08T08:02:00.317Z,12.07
2017-07-08T08:04:27.905Z,12.90
2017-07-08T08:06:55.543Z,11.53
2017-07-08T08:09:23.076Z,12.00
2017-07-08T08:11:50.597Z,17.63
2017-07-08T08:14:18.238Z,13.87
2017-07-08T08:16:45.786Z,10.53
2017-07-08T08:19:13.339Z,10.60
2017-07-08T08:21:40.895Z,10.73
2017-07-08T08:24:08.444Z,9.30
2017-07-08T08:26:36.012Z,8.93
2017-07-08T08:29:03.679Z,8.60
2017-07-08T08:31:31.233Z,8.50
2017-07-08T08:33:58.761Z,8.67
2017-07-08T08:36:26.270Z,7.90
2017-07-08T08:38:53.806Z,9.43
2017-07-08T08:41:21.321Z,8.70
2017-07-08T08:43:49.636Z,8.73
2017-07-08T08:46:17.197Z,8.93
2017-07-08T08:48:44.757Z,10.03
2017-07-08T08:51:12.313Z,8.67
2017-07-08T08:53:39.874Z,9.80
2017-07-08T08:56:07.430Z,9.53
2017-07-08T08:58:34.995Z,8.97
2017-07-08T09:01:02.513Z,9.30
2017-07-08T09:03:30.825Z,9.40
2017-07-08T09:05:58.347Z,8.47
2017-07-08T09:08:26.659Z,7.50
2017-07-08T09:10:54.218Z,8.93
2017-07-08T09:13:21.781Z,9.40
2017-07-08T09:15:49.320Z,11.23
2017-07-08T09:18:16.894Z,11.17
2017-07-08T09:20:44.412Z,9.37
2017-07-08T09:23:12.725Z,9.90
2017-07-08T09:25:40.293Z,10.47
2017-07-08T09:28:07.866Z,8.93
2017-07-08T09:30:35.410Z,9.13
2017-07-08T09:33:02.967Z,9.63
2017-07-08T09:35:30.525Z,10.30
2017-07-08T09:37:58.125Z,9.63
2017-07-08T09:40:25.657Z,10.00
2017-07-08T09:42:53.217Z,10.07
2017-07-08T09:45:20.741Z,10.80
2017-07-08T09:47:48.326Z,10.67
2017-07-08T09:50:15.886Z,11.10
2017-07-08T09:52:43.444Z,9.93
2017-07-08T09:55:10.962Z,10.90
2017-07-08T09:57:39.258Z,11.23
2017-07-08T10:00:06.833Z,11.70
2017-07-08T10:02:34.397Z,12.17
2017-07-08T10:05:01.953Z,11.13
2017-07-08T10:07:29.624Z,11.53
2017-07-08T10:09:57.146Z,10.17
2017-07-08T10:12:24.734Z,11.70
2017-07-08T10:14:52.293Z,11.17
2017-07-08T10:17:19.854Z,11.90
2017-07-08T10:19:47.524Z,10.50
2017-07-08T10:22:15.069Z,11.67
2017-07-08T10:24:42.630Z,10.70
2017-07-08T10:27:10.189Z,10.47
2017-07-08T10:29:37.746Z,11.67
2017-07-08T10:32:05.265Z,10.97
2017-07-08T10:34:33.584Z,10.67
2017-07-08T10:37:01.242Z,11.20
2017-07-08T10:39:28.803Z,10.17
2017-07-08T10:41:56.357Z,11.23
2017-07-08T10:44:23.921Z,12.57
2017-07-08T10:46:51.476Z,11.13
2017-07-08T10:49:19.139Z,11.10
2017-07-08T10:51:46.711Z,11.40
2017-07-08T10:54:14.258Z,11.93
2017-07-08T10:56:41.814Z,23.87
2017-07-08T10:59:09.374Z,12.07
2017-07-08T11:01:36.933Z,11.90
2017-07-08T11:04:04.457Z,11.17
2017-07-08T11:06:32.870Z,10.80
2017-07-08T11:09:00.392Z,11.10
2017-07-08T11:11:28.678Z,10.77
2017-07-08T11:13:56.264Z,11.17
2017-07-08T11:16:23.829Z,12.50
2017-07-08T11:18:51.353Z,10.80
2017-07-08T11:21:19.673Z,12.67
2017-07-08T11:23:47.329Z,12.37
2017-07-08T11:26:14.858Z,10.77
2017-07-08T11:28:42.453Z,12.10
2017-07-08T11:31:09.977Z,12.47
2017-07-08T11:33:37.555Z,11.80
2017-07-08T11:36:05.117Z,12.87
2017-07-08T11:38:32.679Z,12.93
2017-07-08T11:41:00.231Z,13.50
2017-07-08T11:43:27.791Z,13.40
2017-07-08T11:45:55.358Z,12.20
2017-07-08T11:48:22.942Z,15.27
2017-07-08T11:50:50.467Z,14.20
2017-07-08T11:53:18.018Z,13.07
2017-07-08T11:55:45.532Z,16.67
2017-07-08T11:58:13.158Z,22.13
2017-07-08T12:00:40.705Z,12.97
2017-07-08T12:03:08.221Z,11.37
2017-07-08T12:05:36.643Z,12.17
2017-07-08T12:08:04.161Z,12.13
2017-07-08T12:10:32.481Z,26.50
2017-07-08T12:13:00.041Z,21.00
2017-07-08T12:15:27.600Z,11.87
2017-07-08T12:17:55.153Z,12.47
2017-07-08T12:20:22.713Z,11.67
2017-07-08T12:22:50.271Z,12.60
2017-07-08T12:25:17.835Z,12.60
2017-07-08T12:27:45.389Z,8.57
2017-07-08T12:30:12.951Z,5.60
2017-07-08T12:32:40.508Z,5.03
2017-07-08T12:35:08.070Z,9.63
2017-07-08T12:37:35.632Z,6.50
2017-07-08T12:40:03.185Z,6.50
2017-07-08T12:42:30.727Z,6.80
2017-07-08T12:44:58.305Z,7.70
2017-07-08T12:47:25.865Z,6.23
2017-07-08T12:49:53.378Z,7.93
2017-07-08T12:52:21.669Z,7.67
2017-07-08T12:54:49.255Z,7.47
2017-07-08T12:57:16.826Z,11.27
2017-07-08T12:59:44.347Z,8.03
2017-07-08T13:02:11.933Z,7.50
2017-07-08T13:04:39.483Z,7.87
2017-07-08T13:07:06.998Z,6.87
2017-07-08T13:09:34.530Z,7.13
2017-07-08T13:12:02.070Z,8.20
2017-07-08T13:14:29.632Z,7.93
2017-07-08T13:16:57.286Z,8.50
2017-07-08T13:19:24.800Z,8.20
2017-07-08T13:21:53.098Z,8.93
2017-07-08T13:24:20.672Z,9.07
2017-07-08T13:26:48.241Z,11.37
2017-07-08T13:29:15.799Z,10.90
2017-07-08T13:31:43.357Z,9.40
2017-07-08T13:34:10.916Z,10.67
2017-07-08T13:36:38.473Z,9.83
2017-07-08T13:39:05.985Z,10.30
2017-07-08T13:41:34.313Z,9.30
2017-07-08T13:44:01.877Z,10.33
2017-07-08T13:46:29.430Z,9.20
2017-07-08T13:48:56.956Z,9.93
2017-07-08T13:51:24.477Z,9.47
2017-07-08T13:53:52.077Z,10.40
2017-07-08T13:56:19.662Z,20.27
2017-07-08T13:58:47.226Z,13.70
2017-07-08T14:01:14.782Z,11.33
2017-07-08T14:03:42.313Z,10.47
2017-07-08T14:06:09.912Z,10.27
2017-07-08T14:08:37.430Z,9.90
2017-07-08T14:11:05.017Z,9.27
2017-07-08T14:13:32.575Z,10.50
2017-07-08T14:16:00.105Z,34.57
2017-07-08T14:18:27.706Z,12.10
2017-07-08T14:20:55.262Z,8.97
2017-07-08T14:23:22.813Z,9.00
2017-07-08T14:25:50.369Z,8.73
2017-07-08T14:28:17.929Z,8.40
2017-07-08T14:30:45.491Z,7.60
2017-07-08T14:33:13.045Z,7.83
2017-07-08T14:35:40.566Z,8.30
2017-07-08T14:38:08.853Z,9.00
2017-07-08T14:40:36.444Z,8.13
2017-07-08T14:43:04.101Z,8.07
2017-07-08T14:45:31.665Z,7.50
2017-07-08T14:47:59.213Z,8.40
2017-07-08T14:50:26.778Z,7.00
2017-07-08T14:52:54.336Z,8.03
2017-07-08T14:55:21.894Z,8.30
2017-07-08T14:57:49.458Z,7.93
2017-07-08T15:00:17.014Z,7.20
2017-07-08T15:02:44.573Z,8.30
2017-07-08T15:05:12.125Z,7.73
2017-07-08T15:07:39.689Z,10.30
2017-07-08T15:10:07.249Z,8.80
2017-07-08T15:12:34.809Z,9.97
2017-07-08T15:15:02.367Z,9.37
2017-07-08T15:17:29.890Z,10.20
2017-07-08T15:19:58.314Z,9.73
2017-07-08T15:22:25.865Z,9.43
2017-07-08T15:24:53.421Z,10.20
2017-07-08T15:27:20.980Z,8.53
2017-07-08T15:29:48.541Z,13.40
2017-07-08T15:32:16.099Z,9.33
2017-07-08T15:34:43.621Z,8.80
2017-07-08T15:37:11.933Z,10.20
2017-07-08T15:39:39.494Z,8.97
2017-07-08T15:42:07.047Z,9.50
2017-07-08T15:44:34.610Z,8.63
2017-07-08T15:47:02.169Z,10.13
2017-07-08T15:49:29.710Z,9.50
2017-07-08T15:51:57.294Z,10.33
2017-07-08T15:54:24.851Z,8.23
2017-07-08T15:56:52.415Z,9.13
2017-07-08T15:59:19.973Z,10.00
2017-07-08T16:01:47.629Z,11.00
2017-07-08T16:04:15.180Z,9.67
2017-07-08T16:06:42.763Z,11.33
2017-07-08T16:09:10.295Z,72.00
2017-07-08T16:11:37.865Z,17.97
2017-07-08T16:14:05.519Z,12.97
2017-07-08T16:16:33.085Z,10.87
2017-07-08T16:19:00.649Z,10.83
2017-07-08T16:21:28.205Z,10.33
2017-07-08T16:23:55.728Z,11.00
2017-07-08T16:26:24.046Z,12.97
2017-07-08T16:28:51.568Z,10.60
2017-07-08T16:31:19.159Z,10.10
2017-07-08T16:33:46.711Z,12.00
2017-07-08T16:36:14.234Z,10.43
2017-07-08T16:38:42.648Z,11.60
2017-07-08T16:41:10.218Z,11.20
2017-07-08T16:43:37.745Z,12.90
2017-07-08T16:46:05.269Z,25.23
2017-07-08T16:48:32.885Z,16.80
2017-07-08T16:51:00.542Z,15.13
2017-07-08T16:53:28.107Z,13.70
2017-07-08T16:55:55.665Z,13.03
2017-07-08T16:58:23.224Z,12.90
2017-07-08T17:00:50.781Z,15.53
2017-07-08T17:03:18.341Z,12.80
2017-07-08T17:05:45.898Z,25.83
2017-07-08T17:08:13.422Z,12.50
2017-07-08T17:10:41.821Z,12.33
2017-07-08T17:13:09.398Z,13.27
2017-07-08T17:15:36.917Z,13.73
2017-07-08T17:18:05.234Z,13.60
2017-07-08T17:20:32.788Z,12.60
2017-07-08T17:23:00.346Z,13.40
2017-07-08T17:25:27.908Z,13.60
2017-07-08T17:27:55.427Z,13.00
2017-07-08T17:30:23.742Z,13.80
2017-07-08T17:32:51.302Z,13.37
2017-07-08T17:35:18.865Z,17.30
2017-07-08T17:37:46.424Z,16.90
2017-07-08T17:40:14.083Z,16.87
2017-07-08T17:42:41.644Z,16.43
2017-07-08T17:45:09.205Z,15.90
2017-07-08T17:47:36.863Z,13.70
2017-07-08T17:50:04.422Z,49.60
2017-07-08T17:52:31.982Z,22.67
2017-07-08T17:54:59.746Z,14.70
2017-07-08T17:57:27.304Z,15.00
2017-07-08T17:59:54.833Z,12.70
2017-07-08T18:02:22.421Z,13.90
2017-07-08T18:04:49.977Z,14.23
2017-07-08T18:07:17.502Z,12.83
2017-07-08T18:09:45.790Z,13.37
2017-07-08T18:12:13.305Z,13.27
2017-07-08T18:14:40.936Z,13.63
2017-07-08T18:17:08.491Z,14.30
2017-07-08T18:19:36.058Z,12.60
2017-07-08T18:22:03.618Z,14.77
2017-07-08T18:24:31.138Z,15.23
2017-07-08T18:26:58.731Z,13.97
2017-07-08T18:29:26.258Z,13.50
2017-07-08T18:31:53.842Z,11.73
2017-07-08T18:34:21.505Z,12.07
2017-07-08T18:36:49.025Z,10.90
2017-07-08T18:39:17.320Z,11.73
2017-07-08T18:41:44.869Z,12.10
2017-07-08T18:44:12.457Z,11.53
2017-07-08T18:46:39.981Z,11.60
2017-07-08T18:49:08.266Z,10.50
2017-07-08T18:51:35.854Z,12.70
2017-07-08T18:54:03.409Z,14.17
2017-07-08T18:56:30.969Z,11.80
2017-07-08T18:58:58.525Z,10.67
2017-07-08T19:01:26.102Z,10.27
2017-07-08T19:03:53.643Z,11.10
2017-07-08T19:06:21.293Z,10.57
2017-07-08T19:08:48.866Z,10.03
2017-07-08T19:11:16.423Z,11.53
2017-07-08T19:13:43.980Z,17.40
2017-07-08T19:16:11.542Z,14.53
2017-07-08T19:18:39.206Z,16.70
2017-07-08T19:21:06.768Z,12.93
2017-07-08T19:23:34.320Z,23.27
2017-07-08T19:26:01.882Z,13.43
2017-07-08T19:28:29.442Z,11.40
2017-07-08T19:30:57.097Z,14.87
2017-07-08T19:33:24.658Z,12.20
2017-07-08T19:35:52.179Z,13.77
2017-07-08T19:38:20.469Z,13.00
2017-07-08T19:40:48.058Z,13.10
2017-07-08T19:43:15.715Z,12.77
2017-07-08T19:45:43.235Z,11.70
2017-07-08T19:48:11.555Z,11.80
2017-07-08T19:50:39.108Z,11.97
2017-07-08T19:53:06.666Z,13.20
2017-07-08T19:55:34.214Z,11.17
2017-07-08T19:58:01.794Z,11.87
2017-07-08T20:00:29.319Z,11.73
2017-07-08T20:02:56.845Z,12.97
2017-07-08T20:05:24.467Z,13.03
2017-07-08T20:07:52.105Z,17.43
2017-07-08T20:10:19.630Z,14.47
2017-07-08T20:12:47.957Z,17.70
2017-07-08T20:15:15.517Z,15.53
2017-07-08T20:17:43.077Z,16.27
2017-07-08T20:20:10.737Z,16.20
2017-07-08T20:22:38.292Z,16.33
2017-07-08T20:25:05.857Z,17.10
2017-07-08T20:27:33.373Z,14.30
2017-07-08T20:30:01.692Z,14.93
2017-07-08T20:32:29.350Z,14.90
2017-07-08T20:34:56.912Z,14.43
2017-07-08T20:37:24.464Z,16.20
2017-07-08T20:39:52.022Z,16.60
2017-07-08T20:42:19.581Z,16.77
2017-07-08T20:44:47.150Z,14.50
2017-07-08T20:47:14.705Z,15.67
2017-07-08T20:49:42.257Z,14.63
2017-07-08T20:52:09.781Z,14.60
2017-07-08T20:54:38.097Z,14.90
2017-07-08T20:57:05.642Z,15.00
2017-07-08T20:59:33.212Z,15.23
2017-07-08T21:02:00.780Z,16.13
2017-07-08T21:04:28.331Z,17.20
2017-07-08T21:06:55.890Z,16.40
2017-07-08T21:09:23.442Z,17.17
2017-07-08T21:11:51.014Z,15.90
2017-07-08T21:14:18.539Z,17.30
2017-07-08T21:16:46.068Z,16.20
2017-07-08T21:19:13.695Z,17.17
2017-07-08T21:21:41.330Z,18.03
2017-07-08T21:24:08.906Z,17.93
2017-07-08T21:26:36.443Z,17.13
2017-07-08T21:29:03.965Z,17.50
2017-07-08T21:31:31.585Z,18.40
2017-07-08T21:33:59.239Z,17.40
2017-07-08T21:36:26.801Z,17.57
2017-07-08T21:38:54.328Z,15.50
2017-07-08T21:41:22.636Z,17.60
2017-07-08T21:43:51.030Z,17.30
2017-07-08T21:46:18.577Z,17.23
2017-07-08T21:48:46.134Z,17.80
2017-07-08T21:51:13.691Z,17.80
2017-07-08T21:53:41.249Z,18.77
2017-07-08T21:56:08.776Z,18.07
2017-07-08T21:58:36.469Z,17.07
2017-07-08T22:01:04.037Z,15.60
2017-07-08T22:03:31.586Z,15.47
2017-07-08T22:05:59.143Z,15.07
2017-07-08T22:08:26.702Z,17.77
2017-07-08T22:10:54.263Z,19.03
2017-07-08T22:13:21.826Z,18.60
2017-07-08T22:15:49.396Z,19.03
2017-07-08T22:18:16.939Z,19.93
2017-07-08T22:20:44.499Z,18.73
2017-07-08T22:23:12.162Z,17.23
2017-07-08T22:25:39.690Z,15.70
2017-07-08T22:28:07.288Z,14.80
2017-07-08T22:30:34.837Z,14.77
2017-07-08T22:33:02.394Z,14.37
2017-07-08T22:35:30.055Z,15.47
2017-07-08T22:37:57.614Z,15.80
2017-07-08T22:40:25.136Z,15.73
2017-07-08T22:42:53.430Z,17.03
2017-07-08T22:45:21.007Z,15.20
2017-07-08T22:47:48.671Z,16.10
2017-07-08T22:50:16.230Z,15.03
2017-07-08T22:52:43.790Z,15.90
2017-07-08T22:55:11.349Z,16.00
2017-07-08T22:57:38.905Z,15.33
2017-07-08T23:00:06.446Z,17.50
2017-07-08T23:02:33.976Z,16.10
2017-07-08T23:05:02.274Z,19.80
2017-07-08T23:07:29.802Z,22.63
2017-07-08T23:09:57.421Z,17.73
2017-07-08T23:12:24.970Z,15.97
2017-07-08T23:14:52.534Z,18.67
2017-07-08T23:17:20.099Z,17.57
2017-07-08T23:19:47.655Z,15.80
2017-07-08T23:22:15.183Z,16.70
2017-07-08T23:24:42.770Z,16.70
2017-07-08T23:27:10.326Z,18.27
2017-07-08T23:29:37.893Z,17.57
2017-07-08T23:32:05.427Z,18.17
2017-07-08T23:34:33.003Z,17.53
2017-07-08T23:37:00.562Z,17.83
2017-07-08T23:39:28.082Z,14.23
2017-07-08T23:41:56.368Z,16.17
2017-07-08T23:44:24.674Z,16.60
2017-07-08T23:46:52.232Z,17.10
2017-07-08T23:49:19.799Z,17.30
2017-07-08T23:51:47.346Z,16.80
2017-07-08T23:54:14.913Z,17.40
2017-07-08T23:56:42.470Z,16.40
2017-07-08T23:59:09.990Z,17.90
